sensor_id;sensor_type;location;lat;lon;timestamp;P1;durP1;ratioP1;P2;durP2;ratioP2
14903;SDS011;7543;53.148;8.234;2023-05-07T00:00:04;14.17;;;8.70;;
14903;SDS011;7543;53.148;8.234;2023-05-07T00:02:35;13.93;;;8.13;;
14903;SDS011;7543;53.148;8.234;2023-05-07T00:05:04;15.07;;;7.93;;
14903;SDS011;7543;53.148;8.234;2023-05-07T00:07:33;11.80;;;8.13;;
14903;SDS011;7543;53.148;8.234;2023-05-07T00:10:01;14.07;;;8.23;;
14903;SDS011;7543;53.148;8.234;2023-05-07T00:12:29;14.23;;;8.70;;
14903;SDS011;7543;53.148;8.234;2023-05-07T00:15:02;13.87;;;8.50;;
14903;SDS011;7543;53.148;8.234;2023-05-07T00:17:31;14.53;;;9.03;;
14903;SDS011;7543;53.148;8.234;2023-05-07T00:20:00;18.90;;;9.70;;
14903;SDS011;7543;53.148;8.234;2023-05-07T00:22:29;15.37;;;9.10;;
14903;SDS011;7543;53.148;8.234;2023-05-07T00:24:58;15.13;;;8.83;;
14903;SDS011;7543;53.148;8.234;2023-05-07T00:27:27;14.17;;;8.47;;
14903;SDS011;7543;53.148;8.234;2023-05-07T00:29:55;13.37;;;8.23;;
14903;SDS011;7543;53.148;8.234;2023-05-07T00:32:25;14.77;;;8.33;;
14903;SDS011;7543;53.148;8.234;2023-05-07T00:34:53;13.47;;;8.63;;
14903;SDS011;7543;53.148;8.234;2023-05-07T00:37:22;13.17;;;8.10;;
14903;SDS011;7543;53.148;8.234;2023-05-07T00:39:50;15.80;;;9.10;;
14903;SDS011;7543;53.148;8.234;2023-05-07T00:42:19;14.60;;;8.90;;
14903;SDS011;7543;53.148;8.234;2023-05-07T00:44:47;16.07;;;9.50;;
14903;SDS011;7543;53.148;8.234;2023-05-07T00:47:16;16.63;;;8.90;;
14903;SDS011;7543;53.148;8.234;2023-05-07T00:49:46;16.57;;;9.10;;
14903;SDS011;7543;53.148;8.234;2023-05-07T00:52:16;20.40;;;9.10;;
14903;SDS011;7543;53.148;8.234;2023-05-07T00:54:44;17.63;;;9.03;;
14903;SDS011;7543;53.148;8.234;2023-05-07T00:57:13;16.07;;;8.50;;
14903;SDS011;7543;53.148;8.234;2023-05-07T00:59:41;13.30;;;8.77;;
14903;SDS011;7543;53.148;8.234;2023-05-07T01:02:10;13.77;;;9.10;;
14903;SDS011;7543;53.148;8.234;2023-05-07T01:04:38;14.27;;;9.27;;
14903;SDS011;7543;53.148;8.234;2023-05-07T01:07:08;14.13;;;8.70;;
14903;SDS011;7543;53.148;8.234;2023-05-07T01:09:37;17.27;;;8.87;;
14903;SDS011;7543;53.148;8.234;2023-05-07T01:12:06;13.03;;;8.60;;
14903;SDS011;7543;53.148;8.234;2023-05-07T01:14:35;14.27;;;8.87;;
14903;SDS011;7543;53.148;8.234;2023-05-07T01:17:03;14.10;;;8.73;;
14903;SDS011;7543;53.148;8.234;2023-05-07T01:19:32;12.83;;;8.27;;
14903;SDS011;7543;53.148;8.234;2023-05-07T01:22:01;13.13;;;8.53;;
14903;SDS011;7543;53.148;8.234;2023-05-07T01:24:35;14.83;;;9.47;;
14903;SDS011;7543;53.148;8.234;2023-05-07T01:27:05;13.87;;;8.70;;
14903;SDS011;7543;53.148;8.234;2023-05-07T01:29:35;18.73;;;9.20;;
14903;SDS011;7543;53.148;8.234;2023-05-07T01:32:03;10.90;;;8.33;;
14903;SDS011;7543;53.148;8.234;2023-05-07T01:34:33;13.60;;;8.43;;
14903;SDS011;7543;53.148;8.234;2023-05-07T01:37:02;13.73;;;8.70;;
14903;SDS011;7543;53.148;8.234;2023-05-07T01:39:31;14.37;;;9.20;;
14903;SDS011;7543;53.148;8.234;2023-05-07T01:42:01;12.37;;;7.47;;
14903;SDS011;7543;53.148;8.234;2023-05-07T01:44:30;11.33;;;8.07;;
14903;SDS011;7543;53.148;8.234;2023-05-07T01:46:58;12.70;;;8.50;;
14903;SDS011;7543;53.148;8.234;2023-05-07T01:49:27;12.57;;;8.00;;
14903;SDS011;7543;53.148;8.234;2023-05-07T01:51:56;12.30;;;8.07;;
14903;SDS011;7543;53.148;8.234;2023-05-07T01:54:25;13.53;;;8.70;;
14903;SDS011;7543;53.148;8.234;2023-05-07T01:56:55;12.60;;;7.87;;
14903;SDS011;7543;53.148;8.234;2023-05-07T01:59:26;13.63;;;8.53;;
14903;SDS011;7543;53.148;8.234;2023-05-07T02:01:54;12.97;;;8.27;;
14903;SDS011;7543;53.148;8.234;2023-05-07T02:04:23;11.13;;;8.13;;
14903;SDS011;7543;53.148;8.234;2023-05-07T02:06:52;16.17;;;8.20;;
14903;SDS011;7543;53.148;8.234;2023-05-07T02:09:21;13.23;;;8.23;;
14903;SDS011;7543;53.148;8.234;2023-05-07T02:11:51;13.87;;;8.33;;
14903;SDS011;7543;53.148;8.234;2023-05-07T02:14:21;11.40;;;6.97;;
14903;SDS011;7543;53.148;8.234;2023-05-07T02:16:51;14.37;;;8.27;;
14903;SDS011;7543;53.148;8.234;2023-05-07T02:19:19;12.40;;;7.67;;
14903;SDS011;7543;53.148;8.234;2023-05-07T02:21:48;13.70;;;8.47;;
14903;SDS011;7543;53.148;8.234;2023-05-07T02:24:17;13.07;;;8.37;;
14903;SDS011;7543;53.148;8.234;2023-05-07T02:26:45;14.17;;;9.03;;
14903;SDS011;7543;53.148;8.234;2023-05-07T02:29:13;15.60;;;9.77;;
14903;SDS011;7543;53.148;8.234;2023-05-07T02:31:42;12.13;;;8.57;;
14903;SDS011;7543;53.148;8.234;2023-05-07T02:34:12;15.23;;;8.80;;
14903;SDS011;7543;53.148;8.234;2023-05-07T02:36:41;14.23;;;8.57;;
14903;SDS011;7543;53.148;8.234;2023-05-07T02:39:13;15.10;;;8.97;;
14903;SDS011;7543;53.148;8.234;2023-05-07T02:41:42;13.80;;;8.83;;
14903;SDS011;7543;53.148;8.234;2023-05-07T02:44:10;15.63;;;9.20;;
14903;SDS011;7543;53.148;8.234;2023-05-07T02:46:40;12.70;;;8.83;;
14903;SDS011;7543;53.148;8.234;2023-05-07T02:49:13;12.07;;;8.53;;
14903;SDS011;7543;53.148;8.234;2023-05-07T02:51:41;13.87;;;8.80;;
14903;SDS011;7543;53.148;8.234;2023-05-07T02:54:16;13.77;;;8.27;;
14903;SDS011;7543;53.148;8.234;2023-05-07T02:56:45;12.40;;;8.53;;
14903;SDS011;7543;53.148;8.234;2023-05-07T02:59:13;17.63;;;9.00;;
14903;SDS011;7543;53.148;8.234;2023-05-07T03:01:43;15.60;;;9.03;;
14903;SDS011;7543;53.148;8.234;2023-05-07T03:04:14;13.27;;;8.20;;
14903;SDS011;7543;53.148;8.234;2023-05-07T03:06:42;16.50;;;8.97;;
14903;SDS011;7543;53.148;8.234;2023-05-07T03:09:10;18.33;;;8.90;;
14903;SDS011;7543;53.148;8.234;2023-05-07T03:11:39;12.60;;;8.13;;
14903;SDS011;7543;53.148;8.234;2023-05-07T03:14:07;15.20;;;8.83;;
14903;SDS011;7543;53.148;8.234;2023-05-07T03:16:36;11.30;;;7.80;;
14903;SDS011;7543;53.148;8.234;2023-05-07T03:19:05;13.37;;;8.87;;
14903;SDS011;7543;53.148;8.234;2023-05-07T03:21:34;13.03;;;8.57;;
14903;SDS011;7543;53.148;8.234;2023-05-07T03:24:03;13.80;;;8.77;;
14903;SDS011;7543;53.148;8.234;2023-05-07T03:26:32;13.03;;;8.53;;
14903;SDS011;7543;53.148;8.234;2023-05-07T03:29:01;13.33;;;7.77;;
14903;SDS011;7543;53.148;8.234;2023-05-07T03:31:29;12.57;;;8.50;;
14903;SDS011;7543;53.148;8.234;2023-05-07T03:33:58;13.00;;;8.40;;
14903;SDS011;7543;53.148;8.234;2023-05-07T03:36:26;13.57;;;8.47;;
14903;SDS011;7543;53.148;8.234;2023-05-07T03:38:58;11.03;;;7.67;;
14903;SDS011;7543;53.148;8.234;2023-05-07T03:41:35;13.33;;;7.83;;
14903;SDS011;7543;53.148;8.234;2023-05-07T03:44:03;11.77;;;7.27;;
14903;SDS011;7543;53.148;8.234;2023-05-07T03:46:32;12.10;;;7.53;;
14903;SDS011;7543;53.148;8.234;2023-05-07T03:49:04;13.33;;;7.60;;
14903;SDS011;7543;53.148;8.234;2023-05-07T03:51:32;10.67;;;7.10;;
14903;SDS011;7543;53.148;8.234;2023-05-07T03:54:02;12.23;;;7.37;;
14903;SDS011;7543;53.148;8.234;2023-05-07T03:56:32;11.20;;;7.47;;
14903;SDS011;7543;53.148;8.234;2023-05-07T03:59:01;14.10;;;7.40;;
14903;SDS011;7543;53.148;8.234;2023-05-07T04:01:29;11.57;;;7.47;;
14903;SDS011;7543;53.148;8.234;2023-05-07T04:03:58;12.13;;;7.43;;
14903;SDS011;7543;53.148;8.234;2023-05-07T04:06:27;10.13;;;6.60;;
14903;SDS011;7543;53.148;8.234;2023-05-07T04:08:55;11.00;;;7.10;;
14903;SDS011;7543;53.148;8.234;2023-05-07T04:11:25;10.17;;;6.67;;
14903;SDS011;7543;53.148;8.234;2023-05-07T04:13:55;11.57;;;7.83;;
14903;SDS011;7543;53.148;8.234;2023-05-07T04:16:24;11.70;;;7.17;;
14903;SDS011;7543;53.148;8.234;2023-05-07T04:18:53;10.63;;;6.90;;
14903;SDS011;7543;53.148;8.234;2023-05-07T04:21:21;13.67;;;7.80;;
14903;SDS011;7543;53.148;8.234;2023-05-07T04:23:51;16.93;;;7.53;;
14903;SDS011;7543;53.148;8.234;2023-05-07T04:26:20;15.17;;;7.23;;
14903;SDS011;7543;53.148;8.234;2023-05-07T04:28:51;11.90;;;7.07;;
14903;SDS011;7543;53.148;8.234;2023-05-07T04:31:20;11.37;;;6.37;;
14903;SDS011;7543;53.148;8.234;2023-05-07T04:33:52;13.57;;;6.87;;
14903;SDS011;7543;53.148;8.234;2023-05-07T04:36:21;14.17;;;7.43;;
14903;SDS011;7543;53.148;8.234;2023-05-07T04:38:58;10.07;;;6.70;;
14903;SDS011;7543;53.148;8.234;2023-05-07T04:41:27;11.97;;;6.70;;
14903;SDS011;7543;53.148;8.234;2023-05-07T04:43:58;11.47;;;6.60;;
14903;SDS011;7543;53.148;8.234;2023-05-07T04:46:28;11.47;;;6.93;;
14903;SDS011;7543;53.148;8.234;2023-05-07T04:48:58;11.90;;;6.50;;
14903;SDS011;7543;53.148;8.234;2023-05-07T04:51:26;15.33;;;7.63;;
14903;SDS011;7543;53.148;8.234;2023-05-07T04:53:55;13.03;;;6.83;;
14903;SDS011;7543;53.148;8.234;2023-05-07T04:56:24;11.30;;;6.97;;
14903;SDS011;7543;53.148;8.234;2023-05-07T04:58:55;10.40;;;6.67;;
14903;SDS011;7543;53.148;8.234;2023-05-07T05:01:26;12.07;;;7.37;;
14903;SDS011;7543;53.148;8.234;2023-05-07T05:03:54;9.80;;;6.93;;
14903;SDS011;7543;53.148;8.234;2023-05-07T05:06:23;11.80;;;7.20;;
14903;SDS011;7543;53.148;8.234;2023-05-07T05:08:52;10.53;;;6.63;;
14903;SDS011;7543;53.148;8.234;2023-05-07T05:11:21;12.77;;;7.10;;
14903;SDS011;7543;53.148;8.234;2023-05-07T05:13:50;11.30;;;6.53;;
14903;SDS011;7543;53.148;8.234;2023-05-07T05:16:21;10.67;;;6.87;;
14903;SDS011;7543;53.148;8.234;2023-05-07T05:18:51;9.40;;;6.47;;
14903;SDS011;7543;53.148;8.234;2023-05-07T05:21:21;13.90;;;8.03;;
14903;SDS011;7543;53.148;8.234;2023-05-07T05:23:53;13.03;;;7.43;;
14903;SDS011;7543;53.148;8.234;2023-05-07T05:26:24;11.17;;;7.03;;
14903;SDS011;7543;53.148;8.234;2023-05-07T05:28:53;11.17;;;7.03;;
14903;SDS011;7543;53.148;8.234;2023-05-07T05:31:24;12.27;;;7.13;;
14903;SDS011;7543;53.148;8.234;2023-05-07T05:33:54;13.83;;;7.60;;
14903;SDS011;7543;53.148;8.234;2023-05-07T05:36:22;9.73;;;6.53;;
14903;SDS011;7543;53.148;8.234;2023-05-07T05:38:53;10.77;;;6.97;;
14903;SDS011;7543;53.148;8.234;2023-05-07T05:41:23;11.13;;;6.70;;
14903;SDS011;7543;53.148;8.234;2023-05-07T05:43:52;12.47;;;7.60;;
14903;SDS011;7543;53.148;8.234;2023-05-07T05:46:20;11.63;;;7.87;;
14903;SDS011;7543;53.148;8.234;2023-05-07T05:48:51;12.43;;;7.43;;
14903;SDS011;7543;53.148;8.234;2023-05-07T05:51:21;12.13;;;7.33;;
14903;SDS011;7543;53.148;8.234;2023-05-07T05:53:51;11.53;;;7.27;;
14903;SDS011;7543;53.148;8.234;2023-05-07T05:56:20;12.43;;;7.63;;
14903;SDS011;7543;53.148;8.234;2023-05-07T05:58:48;11.27;;;6.73;;
14903;SDS011;7543;53.148;8.234;2023-05-07T06:01:17;12.73;;;7.37;;
14903;SDS011;7543;53.148;8.234;2023-05-07T06:03:45;11.70;;;7.03;;
14903;SDS011;7543;53.148;8.234;2023-05-07T06:06:15;10.37;;;6.50;;
14903;SDS011;7543;53.148;8.234;2023-05-07T06:08:46;11.47;;;6.83;;
14903;SDS011;7543;53.148;8.234;2023-05-07T06:11:19;11.93;;;7.00;;
14903;SDS011;7543;53.148;8.234;2023-05-07T06:13:48;14.20;;;7.97;;
14903;SDS011;7543;53.148;8.234;2023-05-07T06:16:16;11.03;;;6.50;;
14903;SDS011;7543;53.148;8.234;2023-05-07T06:18:45;11.17;;;7.20;;
14903;SDS011;7543;53.148;8.234;2023-05-07T06:21:15;10.70;;;6.70;;
14903;SDS011;7543;53.148;8.234;2023-05-07T06:23:45;13.03;;;7.10;;
14903;SDS011;7543;53.148;8.234;2023-05-07T06:26:14;10.03;;;7.10;;
14903;SDS011;7543;53.148;8.234;2023-05-07T06:28:48;10.00;;;6.37;;
14903;SDS011;7543;53.148;8.234;2023-05-07T06:31:18;9.13;;;6.00;;
14903;SDS011;7543;53.148;8.234;2023-05-07T06:33:57;13.83;;;6.90;;
14903;SDS011;7543;53.148;8.234;2023-05-07T06:36:31;11.87;;;6.90;;
14903;SDS011;7543;53.148;8.234;2023-05-07T06:39:06;10.67;;;6.70;;
14903;SDS011;7543;53.148;8.234;2023-05-07T06:41:36;11.83;;;7.17;;
14903;SDS011;7543;53.148;8.234;2023-05-07T06:44:10;11.57;;;6.87;;
14903;SDS011;7543;53.148;8.234;2023-05-07T06:46:43;9.97;;;6.17;;
14903;SDS011;7543;53.148;8.234;2023-05-07T06:49:12;9.00;;;6.07;;
14903;SDS011;7543;53.148;8.234;2023-05-07T06:51:41;9.00;;;6.30;;
14903;SDS011;7543;53.148;8.234;2023-05-07T06:54:11;11.70;;;6.40;;
14903;SDS011;7543;53.148;8.234;2023-05-07T06:56:40;11.83;;;6.77;;
14903;SDS011;7543;53.148;8.234;2023-05-07T06:59:09;9.00;;;6.00;;
14903;SDS011;7543;53.148;8.234;2023-05-07T07:01:40;9.47;;;6.30;;
14903;SDS011;7543;53.148;8.234;2023-05-07T07:04:10;10.10;;;6.03;;
14903;SDS011;7543;53.148;8.234;2023-05-07T07:06:41;19.00;;;6.37;;
14903;SDS011;7543;53.148;8.234;2023-05-07T07:09:14;8.13;;;5.83;;
14903;SDS011;7543;53.148;8.234;2023-05-07T07:11:42;8.53;;;5.23;;
14903;SDS011;7543;53.148;8.234;2023-05-07T07:14:11;9.60;;;5.77;;
14903;SDS011;7543;53.148;8.234;2023-05-07T07:16:46;8.03;;;5.50;;
14903;SDS011;7543;53.148;8.234;2023-05-07T07:19:15;9.27;;;5.63;;
14903;SDS011;7543;53.148;8.234;2023-05-07T07:21:44;7.47;;;5.10;;
14903;SDS011;7543;53.148;8.234;2023-05-07T07:24:15;8.10;;;5.40;;
14903;SDS011;7543;53.148;8.234;2023-05-07T07:26:49;8.77;;;5.53;;
14903;SDS011;7543;53.148;8.234;2023-05-07T07:29:18;7.37;;;5.03;;
14903;SDS011;7543;53.148;8.234;2023-05-07T07:31:48;7.40;;;4.80;;
14903;SDS011;7543;53.148;8.234;2023-05-07T07:34:17;7.33;;;4.60;;
14903;SDS011;7543;53.148;8.234;2023-05-07T07:36:45;8.67;;;4.93;;
14903;SDS011;7543;53.148;8.234;2023-05-07T07:39:18;7.97;;;5.33;;
14903;SDS011;7543;53.148;8.234;2023-05-07T07:41:49;8.47;;;4.67;;
14903;SDS011;7543;53.148;8.234;2023-05-07T07:44:18;6.73;;;4.63;;
14903;SDS011;7543;53.148;8.234;2023-05-07T07:46:52;7.00;;;4.90;;
14903;SDS011;7543;53.148;8.234;2023-05-07T07:49:21;7.47;;;4.93;;
14903;SDS011;7543;53.148;8.234;2023-05-07T07:51:50;8.97;;;5.07;;
14903;SDS011;7543;53.148;8.234;2023-05-07T07:54:20;6.37;;;4.80;;
14903;SDS011;7543;53.148;8.234;2023-05-07T07:56:48;6.73;;;5.23;;
14903;SDS011;7543;53.148;8.234;2023-05-07T07:59:18;6.20;;;4.63;;
14903;SDS011;7543;53.148;8.234;2023-05-07T08:01:49;8.53;;;5.10;;
14903;SDS011;7543;53.148;8.234;2023-05-07T08:04:19;6.33;;;4.80;;
14903;SDS011;7543;53.148;8.234;2023-05-07T08:06:48;6.87;;;4.73;;
14903;SDS011;7543;53.148;8.234;2023-05-07T08:09:16;6.97;;;5.00;;
14903;SDS011;7543;53.148;8.234;2023-05-07T08:11:47;7.10;;;5.23;;
14903;SDS011;7543;53.148;8.234;2023-05-07T08:14:16;6.10;;;4.87;;
14903;SDS011;7543;53.148;8.234;2023-05-07T08:16:47;7.87;;;5.47;;
14903;SDS011;7543;53.148;8.234;2023-05-07T08:19:15;7.60;;;5.33;;
14903;SDS011;7543;53.148;8.234;2023-05-07T08:21:45;8.33;;;5.30;;
14903;SDS011;7543;53.148;8.234;2023-05-07T08:24:14;7.20;;;5.43;;
14903;SDS011;7543;53.148;8.234;2023-05-07T08:26:43;8.60;;;5.47;;
14903;SDS011;7543;53.148;8.234;2023-05-07T08:29:13;8.40;;;5.90;;
14903;SDS011;7543;53.148;8.234;2023-05-07T08:31:43;9.40;;;6.30;;
14903;SDS011;7543;53.148;8.234;2023-05-07T08:34:11;9.87;;;5.50;;
14903;SDS011;7543;53.148;8.234;2023-05-07T08:36:43;8.50;;;5.97;;
14903;SDS011;7543;53.148;8.234;2023-05-07T08:39:16;9.60;;;5.50;;
14903;SDS011;7543;53.148;8.234;2023-05-07T08:41:45;8.27;;;5.33;;
14903;SDS011;7543;53.148;8.234;2023-05-07T08:44:16;8.17;;;6.07;;
14903;SDS011;7543;53.148;8.234;2023-05-07T08:46:46;7.33;;;5.47;;
14903;SDS011;7543;53.148;8.234;2023-05-07T08:49:17;7.60;;;5.37;;
14903;SDS011;7543;53.148;8.234;2023-05-07T08:51:46;8.30;;;5.93;;
14903;SDS011;7543;53.148;8.234;2023-05-07T08:54:15;8.03;;;5.30;;
14903;SDS011;7543;53.148;8.234;2023-05-07T08:56:45;9.03;;;6.10;;
14903;SDS011;7543;53.148;8.234;2023-05-07T08:59:13;7.10;;;5.50;;
14903;SDS011;7543;53.148;8.234;2023-05-07T09:01:45;8.67;;;5.53;;
14903;SDS011;7543;53.148;8.234;2023-05-07T09:04:14;7.47;;;5.53;;
14903;SDS011;7543;53.148;8.234;2023-05-07T09:06:43;9.17;;;6.30;;
14903;SDS011;7543;53.148;8.234;2023-05-07T09:09:14;8.20;;;5.60;;
14903;SDS011;7543;53.148;8.234;2023-05-07T09:11:45;8.57;;;5.83;;
14903;SDS011;7543;53.148;8.234;2023-05-07T09:14:16;6.97;;;5.37;;
14903;SDS011;7543;53.148;8.234;2023-05-07T09:16:47;8.20;;;5.37;;
14903;SDS011;7543;53.148;8.234;2023-05-07T09:19:16;7.70;;;5.20;;
14903;SDS011;7543;53.148;8.234;2023-05-07T09:21:57;7.33;;;5.33;;
14903;SDS011;7543;53.148;8.234;2023-05-07T09:24:26;7.23;;;5.27;;
14903;SDS011;7543;53.148;8.234;2023-05-07T09:26:57;8.90;;;5.47;;
14903;SDS011;7543;53.148;8.234;2023-05-07T09:29:27;7.97;;;5.23;;
14903;SDS011;7543;53.148;8.234;2023-05-07T09:31:58;6.47;;;5.03;;
14903;SDS011;7543;53.148;8.234;2023-05-07T09:34:26;8.07;;;5.30;;
14903;SDS011;7543;53.148;8.234;2023-05-07T09:36:55;7.20;;;5.37;;
14903;SDS011;7543;53.148;8.234;2023-05-07T09:39:24;6.80;;;5.30;;
14903;SDS011;7543;53.148;8.234;2023-05-07T09:41:53;7.30;;;4.93;;
14903;SDS011;7543;53.148;8.234;2023-05-07T09:44:32;6.23;;;5.00;;
14903;SDS011;7543;53.148;8.234;2023-05-07T09:47:04;6.50;;;4.83;;
14903;SDS011;7543;53.148;8.234;2023-05-07T09:49:39;6.47;;;5.10;;
14903;SDS011;7543;53.148;8.234;2023-05-07T09:52:11;6.17;;;4.50;;
14903;SDS011;7543;53.148;8.234;2023-05-07T09:54:47;6.37;;;4.60;;
14903;SDS011;7543;53.148;8.234;2023-05-07T09:57:18;5.27;;;4.57;;
14903;SDS011;7543;53.148;8.234;2023-05-07T09:59:50;6.93;;;4.57;;
14903;SDS011;7543;53.148;8.234;2023-05-07T10:02:22;6.03;;;4.60;;
14903;SDS011;7543;53.148;8.234;2023-05-07T10:04:53;4.97;;;4.23;;
14903;SDS011;7543;53.148;8.234;2023-05-07T10:07:27;5.33;;;4.30;;
14903;SDS011;7543;53.148;8.234;2023-05-07T10:10:00;5.27;;;4.20;;
14903;SDS011;7543;53.148;8.234;2023-05-07T10:12:35;5.40;;;4.50;;
14903;SDS011;7543;53.148;8.234;2023-05-07T10:15:10;6.60;;;5.03;;
14903;SDS011;7543;53.148;8.234;2023-05-07T10:17:42;6.00;;;4.67;;
14903;SDS011;7543;53.148;8.234;2023-05-07T10:20:12;9.70;;;5.07;;
14903;SDS011;7543;53.148;8.234;2023-05-07T10:22:43;7.20;;;4.83;;
14903;SDS011;7543;53.148;8.234;2023-05-07T10:25:16;10.10;;;4.80;;
14903;SDS011;7543;53.148;8.234;2023-05-07T10:27:47;5.80;;;4.50;;
14903;SDS011;7543;53.148;8.234;2023-05-07T10:30:22;5.87;;;4.27;;
14903;SDS011;7543;53.148;8.234;2023-05-07T10:32:59;6.30;;;4.30;;
14903;SDS011;7543;53.148;8.234;2023-05-07T10:35:37;6.40;;;4.40;;
14903;SDS011;7543;53.148;8.234;2023-05-07T10:38:08;6.50;;;4.60;;
14903;SDS011;7543;53.148;8.234;2023-05-07T10:40:39;6.20;;;4.97;;
14903;SDS011;7543;53.148;8.234;2023-05-07T10:43:08;7.17;;;4.40;;
14903;SDS011;7543;53.148;8.234;2023-05-07T10:45:42;6.90;;;4.67;;
14903;SDS011;7543;53.148;8.234;2023-05-07T10:48:14;5.57;;;4.47;;
14903;SDS011;7543;53.148;8.234;2023-05-07T10:50:47;6.30;;;4.83;;
14903;SDS011;7543;53.148;8.234;2023-05-07T10:53:22;8.33;;;5.40;;
14903;SDS011;7543;53.148;8.234;2023-05-07T11:02:26;6.80;;;4.90;;
14903;SDS011;7543;53.148;8.234;2023-05-07T11:05:42;6.33;;;4.60;;
14903;SDS011;7543;53.148;8.234;2023-05-07T11:08:17;7.37;;;4.90;;
14903;SDS011;7543;53.148;8.234;2023-05-07T11:10:55;6.37;;;4.90;;
14903;SDS011;7543;53.148;8.234;2023-05-07T11:13:49;6.67;;;5.10;;
14903;SDS011;7543;53.148;8.234;2023-05-07T11:16:34;5.93;;;4.90;;
14903;SDS011;7543;53.148;8.234;2023-05-07T11:19:12;7.50;;;4.97;;
14903;SDS011;7543;53.148;8.234;2023-05-07T11:21:46;6.20;;;5.13;;
14903;SDS011;7543;53.148;8.234;2023-05-07T11:24:22;6.30;;;5.07;;
14903;SDS011;7543;53.148;8.234;2023-05-07T11:26:55;6.17;;;4.90;;
14903;SDS011;7543;53.148;8.234;2023-05-07T11:29:25;6.63;;;5.07;;
14903;SDS011;7543;53.148;8.234;2023-05-07T11:32:00;7.17;;;5.23;;
14903;SDS011;7543;53.148;8.234;2023-05-07T11:34:34;6.43;;;5.27;;
14903;SDS011;7543;53.148;8.234;2023-05-07T11:37:04;8.07;;;5.30;;
14903;SDS011;7543;53.148;8.234;2023-05-07T11:39:45;6.70;;;5.40;;
14903;SDS011;7543;53.148;8.234;2023-05-07T11:42:27;8.53;;;5.57;;
14903;SDS011;7543;53.148;8.234;2023-05-07T11:44:56;6.70;;;5.13;;
14903;SDS011;7543;53.148;8.234;2023-05-07T11:47:24;6.90;;;5.00;;
14903;SDS011;7543;53.148;8.234;2023-05-07T11:49:53;6.53;;;5.50;;
14903;SDS011;7543;53.148;8.234;2023-05-07T11:52:23;7.10;;;5.23;;
14903;SDS011;7543;53.148;8.234;2023-05-07T11:54:52;14.17;;;5.43;;
14903;SDS011;7543;53.148;8.234;2023-05-07T11:57:22;7.47;;;5.53;;
14903;SDS011;7543;53.148;8.234;2023-05-07T11:59:52;8.33;;;5.13;;
14903;SDS011;7543;53.148;8.234;2023-05-07T12:02:21;7.27;;;5.40;;
14903;SDS011;7543;53.148;8.234;2023-05-07T12:04:51;7.90;;;5.80;;
14903;SDS011;7543;53.148;8.234;2023-05-07T12:07:20;8.93;;;5.63;;
14903;SDS011;7543;53.148;8.234;2023-05-07T12:09:49;7.43;;;5.57;;
14903;SDS011;7543;53.148;8.234;2023-05-07T12:12:18;7.70;;;5.70;;
14903;SDS011;7543;53.148;8.234;2023-05-07T12:14:46;7.97;;;5.23;;
14903;SDS011;7543;53.148;8.234;2023-05-07T12:17:16;7.77;;;5.73;;
14903;SDS011;7543;53.148;8.234;2023-05-07T12:19:44;8.07;;;5.37;;
14903;SDS011;7543;53.148;8.234;2023-05-07T12:22:13;7.30;;;5.50;;
14903;SDS011;7543;53.148;8.234;2023-05-07T12:24:43;7.97;;;5.17;;
14903;SDS011;7543;53.148;8.234;2023-05-07T12:27:14;7.33;;;5.63;;
14903;SDS011;7543;53.148;8.234;2023-05-07T12:29:43;8.87;;;6.20;;
14903;SDS011;7543;53.148;8.234;2023-05-07T12:32:13;7.47;;;5.80;;
14903;SDS011;7543;53.148;8.234;2023-05-07T12:34:42;8.63;;;5.90;;
14903;SDS011;7543;53.148;8.234;2023-05-07T12:37:11;6.70;;;4.77;;
14903;SDS011;7543;53.148;8.234;2023-05-07T12:39:44;7.20;;;5.30;;
14903;SDS011;7543;53.148;8.234;2023-05-07T12:42:15;6.80;;;5.27;;
14903;SDS011;7543;53.148;8.234;2023-05-07T12:44:45;7.23;;;5.37;;
14903;SDS011;7543;53.148;8.234;2023-05-07T12:47:15;7.93;;;5.70;;
14903;SDS011;7543;53.148;8.234;2023-05-07T12:49:43;7.60;;;5.30;;
14903;SDS011;7543;53.148;8.234;2023-05-07T12:52:12;7.57;;;5.60;;
14903;SDS011;7543;53.148;8.234;2023-05-07T12:54:40;7.17;;;5.40;;
14903;SDS011;7543;53.148;8.234;2023-05-07T12:57:09;6.57;;;5.30;;
14903;SDS011;7543;53.148;8.234;2023-05-07T12:59:40;8.50;;;5.13;;
14903;SDS011;7543;53.148;8.234;2023-05-07T13:02:09;6.40;;;4.97;;
14903;SDS011;7543;53.148;8.234;2023-05-07T13:04:39;6.97;;;5.13;;
14903;SDS011;7543;53.148;8.234;2023-05-07T13:07:07;8.50;;;4.77;;
14903;SDS011;7543;53.148;8.234;2023-05-07T13:09:35;8.53;;;4.70;;
14903;SDS011;7543;53.148;8.234;2023-05-07T13:12:04;6.07;;;4.83;;
14903;SDS011;7543;53.148;8.234;2023-05-07T13:14:33;6.23;;;4.40;;
14903;SDS011;7543;53.148;8.234;2023-05-07T13:17:03;5.60;;;4.30;;
14903;SDS011;7543;53.148;8.234;2023-05-07T13:19:31;7.07;;;5.20;;
14903;SDS011;7543;53.148;8.234;2023-05-07T13:22:00;5.17;;;4.10;;
14903;SDS011;7543;53.148;8.234;2023-05-07T13:24:28;6.43;;;4.33;;
14903;SDS011;7543;53.148;8.234;2023-05-07T13:26:57;7.37;;;4.60;;
14903;SDS011;7543;53.148;8.234;2023-05-07T13:29:25;6.00;;;4.60;;
14903;SDS011;7543;53.148;8.234;2023-05-07T13:31:56;6.20;;;4.73;;
14903;SDS011;7543;53.148;8.234;2023-05-07T13:34:26;7.30;;;5.00;;
14903;SDS011;7543;53.148;8.234;2023-05-07T13:36:56;7.23;;;4.80;;
14903;SDS011;7543;53.148;8.234;2023-05-07T13:39:24;5.67;;;4.23;;
14903;SDS011;7543;53.148;8.234;2023-05-07T13:41:52;6.20;;;4.37;;
14903;SDS011;7543;53.148;8.234;2023-05-07T13:44:21;5.80;;;4.50;;
14903;SDS011;7543;53.148;8.234;2023-05-07T13:46:49;4.63;;;4.00;;
14903;SDS011;7543;53.148;8.234;2023-05-07T13:49:18;4.77;;;4.00;;
14903;SDS011;7543;53.148;8.234;2023-05-07T13:51:47;5.60;;;4.30;;
14903;SDS011;7543;53.148;8.234;2023-05-07T13:54:16;4.33;;;3.77;;
14903;SDS011;7543;53.148;8.234;2023-05-07T13:56:44;11.07;;;4.47;;
14903;SDS011;7543;53.148;8.234;2023-05-07T13:59:12;6.33;;;4.10;;
14903;SDS011;7543;53.148;8.234;2023-05-07T14:01:41;5.67;;;3.87;;
14903;SDS011;7543;53.148;8.234;2023-05-07T14:04:10;5.90;;;4.40;;
14903;SDS011;7543;53.148;8.234;2023-05-07T14:06:38;5.30;;;3.97;;
14903;SDS011;7543;53.148;8.234;2023-05-07T14:09:08;5.80;;;3.87;;
14903;SDS011;7543;53.148;8.234;2023-05-07T14:11:38;4.77;;;4.20;;
14903;SDS011;7543;53.148;8.234;2023-05-07T14:14:07;5.83;;;4.00;;
14903;SDS011;7543;53.148;8.234;2023-05-07T14:16:38;5.30;;;4.03;;
14903;SDS011;7543;53.148;8.234;2023-05-07T14:19:06;6.20;;;4.17;;
14903;SDS011;7543;53.148;8.234;2023-05-07T14:21:34;4.53;;;3.50;;
14903;SDS011;7543;53.148;8.234;2023-05-07T14:24:03;5.00;;;3.70;;
14903;SDS011;7543;53.148;8.234;2023-05-07T14:26:33;4.90;;;3.90;;
14903;SDS011;7543;53.148;8.234;2023-05-07T14:29:02;6.97;;;4.00;;
14903;SDS011;7543;53.148;8.234;2023-05-07T14:31:30;4.40;;;3.73;;
14903;SDS011;7543;53.148;8.234;2023-05-07T14:34:00;4.90;;;4.17;;
14903;SDS011;7543;53.148;8.234;2023-05-07T14:36:29;5.03;;;3.90;;
14903;SDS011;7543;53.148;8.234;2023-05-07T14:38:58;5.23;;;3.90;;
14903;SDS011;7543;53.148;8.234;2023-05-07T14:41:27;4.47;;;3.37;;
14903;SDS011;7543;53.148;8.234;2023-05-07T14:43:56;4.97;;;3.80;;
14903;SDS011;7543;53.148;8.234;2023-05-07T14:46:25;5.50;;;3.60;;
14903;SDS011;7543;53.148;8.234;2023-05-07T14:48:54;6.03;;;3.80;;
14903;SDS011;7543;53.148;8.234;2023-05-07T14:51:22;5.13;;;3.63;;
14903;SDS011;7543;53.148;8.234;2023-05-07T14:53:50;5.07;;;3.70;;
14903;SDS011;7543;53.148;8.234;2023-05-07T14:56:18;4.47;;;3.63;;
14903;SDS011;7543;53.148;8.234;2023-05-07T14:58:47;4.40;;;3.40;;
14903;SDS011;7543;53.148;8.234;2023-05-07T15:01:17;3.83;;;3.27;;
14903;SDS011;7543;53.148;8.234;2023-05-07T15:03:45;4.13;;;3.40;;
14903;SDS011;7543;53.148;8.234;2023-05-07T15:06:14;7.30;;;3.40;;
14903;SDS011;7543;53.148;8.234;2023-05-07T15:08:42;4.77;;;3.30;;
14903;SDS011;7543;53.148;8.234;2023-05-07T15:11:10;4.50;;;3.20;;
14903;SDS011;7543;53.148;8.234;2023-05-07T15:13:39;4.30;;;3.43;;
14903;SDS011;7543;53.148;8.234;2023-05-07T15:16:07;3.53;;;2.90;;
14903;SDS011;7543;53.148;8.234;2023-05-07T15:18:37;4.00;;;3.37;;